createdAt,value
2018-12-30T00:00:29.186Z,0.00
2018-12-30T00:01:30.042Z,0.00
2018-12-30T00:02:29.923Z,0.00
2018-12-30T00:03:30.246Z,0.00
2018-12-30T00:04:30.787Z,0.00
2018-12-30T00:05:30.682Z,0.00
2018-12-30T00:06:31.171Z,0.00
2018-12-30T00:07:31.575Z,0.00
2018-12-30T00:08:31.856Z,0.00
2018-12-30T00:09:32.449Z,0.00
2018-12-30T00:10:32.327Z,0.00
2018-12-30T00:11:33.136Z,0.00
2018-12-30T00:12:33.030Z,0.00
2018-12-30T00:13:34.064Z,0.00
2018-12-30T00:14:34.091Z,0.00
2018-12-30T00:15:34.267Z,0.00
2018-12-30T00:16:35.014Z,0.00
2018-12-30T00:17:35.423Z,0.00
2018-12-30T00:18:35.733Z,0.00
2018-12-30T00:19:42.594Z,0.00
2018-12-30T00:20:36.089Z,0.00
2018-12-30T00:21:36.126Z,0.00
2018-12-30T00:22:36.171Z,0.00
2018-12-30T00:23:36.188Z,0.00
2018-12-30T00:24:36.694Z,0.00
2018-12-30T00:25:36.718Z,0.00
2018-12-30T00:26:36.821Z,0.00
2018-12-30T00:27:36.916Z,0.00
2018-12-30T00:28:37.127Z,0.00
2018-12-30T00:29:37.126Z,0.00
2018-12-30T00:30:37.433Z,0.00
2018-12-30T00:31:37.640Z,0.00
2018-12-30T00:32:37.811Z,0.00
2018-12-30T00:33:38.186Z,0.00
2018-12-30T00:34:38.372Z,0.00
2018-12-30T00:35:38.502Z,0.00
2018-12-30T00:36:38.872Z,0.00
2018-12-30T00:37:38.939Z,0.00
2018-12-30T00:38:39.189Z,0.00
2018-12-30T00:39:39.315Z,0.00
2018-12-30T00:40:39.525Z,0.00
2018-12-30T00:41:39.438Z,0.00
2018-12-30T00:42:39.459Z,0.00
2018-12-30T00:43:39.860Z,0.00
2018-12-30T00:44:40.142Z,0.00
2018-12-30T00:45:40.510Z,0.00
2018-12-30T00:46:41.118Z,0.00
2018-12-30T00:47:40.904Z,0.00
2018-12-30T00:48:41.404Z,0.00
2018-12-30T00:49:41.957Z,0.00
2018-12-30T00:50:42.452Z,0.00
2018-12-30T00:51:42.925Z,0.00
2018-12-30T00:52:43.480Z,0.00
2018-12-30T00:53:43.396Z,0.00
2018-12-30T00:54:43.788Z,0.00
2018-12-30T00:55:43.804Z,0.00
2018-12-30T00:56:44.219Z,0.00
2018-12-30T00:57:44.622Z,0.00
2018-12-30T00:58:45.144Z,0.00
2018-12-30T00:59:45.040Z,0.00
2018-12-30T01:00:44.986Z,0.00
2018-12-30T01:01:45.277Z,0.00
2018-12-30T01:02:45.672Z,0.00
2018-12-30T01:03:47.132Z,0.00
2018-12-30T01:04:46.411Z,0.00
2018-12-30T01:05:46.423Z,0.00
2018-12-30T01:06:46.882Z,0.00
2018-12-30T01:07:47.416Z,0.00
2018-12-30T01:08:47.264Z,0.00
2018-12-30T01:09:47.667Z,0.00
2018-12-30T01:10:48.464Z,0.00
2018-12-30T01:11:48.971Z,0.00
2018-12-30T01:12:49.193Z,0.00
2018-12-30T01:13:49.247Z,0.00
2018-12-30T01:14:49.721Z,0.00
2018-12-30T01:15:49.931Z,0.00
2018-12-30T01:16:50.148Z,0.00
2018-12-30T01:17:50.459Z,0.00
2018-12-30T01:18:50.672Z,0.00
2018-12-30T01:19:50.882Z,0.00
2018-12-30T01:20:51.010Z,0.00
2018-12-30T01:21:51.302Z,0.00
2018-12-30T01:22:51.408Z,0.00
2018-12-30T01:23:51.428Z,0.00
2018-12-30T01:24:51.527Z,0.00
2018-12-30T01:25:51.632Z,0.00
2018-12-30T01:26:51.539Z,0.00
2018-12-30T01:27:51.947Z,0.00
2018-12-30T01:28:52.333Z,0.00
2018-12-30T01:29:52.499Z,0.00
2018-12-30T01:30:52.620Z,0.00
2018-12-30T01:31:52.731Z,0.00
2018-12-30T01:32:52.867Z,0.00
2018-12-30T01:33:52.994Z,0.00
2018-12-30T01:34:53.042Z,0.00
2018-12-30T01:35:53.144Z,0.00
2018-12-30T01:36:53.244Z,0.00
2018-12-30T01:37:53.548Z,0.00
2018-12-30T01:38:53.736Z,0.00
2018-12-30T01:39:53.900Z,0.00
2018-12-30T01:40:53.918Z,0.00
2018-12-30T01:41:54.784Z,0.00
2018-12-30T01:42:54.552Z,0.00
2018-12-30T01:43:54.923Z,0.00
2018-12-30T01:44:55.284Z,0.00
2018-12-30T01:45:55.591Z,0.00
2018-12-30T01:46:55.916Z,0.00
2018-12-30T01:47:56.207Z,0.00
2018-12-30T01:48:56.512Z,0.00
2018-12-30T01:49:56.921Z,0.00
2018-12-30T01:50:57.316Z,0.00
2018-12-30T01:51:57.745Z,0.00
2018-12-30T01:52:58.104Z,0.00
2018-12-30T01:53:58.387Z,0.00
2018-12-30T01:54:58.981Z,0.00
2018-12-30T01:55:58.830Z,0.00
2018-12-30T01:56:59.149Z,0.00
2018-12-30T01:57:59.439Z,0.00
2018-12-30T01:59:00.058Z,0.00
2018-12-30T02:00:00.171Z,0.00
2018-12-30T02:00:59.950Z,0.00
2018-12-30T02:02:00.379Z,0.00
2018-12-30T02:03:01.068Z,0.00
2018-12-30T02:04:01.097Z,0.00
2018-12-30T02:06:01.508Z,0.00
2018-12-30T02:07:01.725Z,0.00
2018-12-30T02:08:01.881Z,0.00
2018-12-30T02:09:02.331Z,0.00
2018-12-30T02:10:02.361Z,0.00
2018-12-30T02:11:02.642Z,0.00
2018-12-30T02:12:03.091Z,0.00
2018-12-30T02:13:03.509Z,0.00
2018-12-30T02:14:04.542Z,0.00
2018-12-30T02:15:04.246Z,0.00
2018-12-30T02:16:04.657Z,0.00
2018-12-30T02:17:04.866Z,0.00
2018-12-30T02:18:04.948Z,0.00
2018-12-30T02:19:05.088Z,0.00
2018-12-30T02:20:05.208Z,0.00
2018-12-30T02:21:05.523Z,0.00
2018-12-30T02:22:05.923Z,0.00
2018-12-30T02:23:06.243Z,0.00
2018-12-30T02:24:06.553Z,0.00
2018-12-30T02:25:06.660Z,0.00
2018-12-30T02:26:07.083Z,0.00
2018-12-30T02:27:07.139Z,0.00
2018-12-30T02:28:07.400Z,0.00
2018-12-30T02:29:07.411Z,0.00
2018-12-30T02:30:07.329Z,0.00
2018-12-30T02:31:07.826Z,0.00
2018-12-30T02:32:07.955Z,0.00
2018-12-30T02:33:08.251Z,0.00
2018-12-30T02:34:08.310Z,0.00
2018-12-30T02:35:08.592Z,0.00
2018-12-30T02:36:09.086Z,0.00
2018-12-30T02:37:08.897Z,0.00
2018-12-30T02:38:09.626Z,0.00
2018-12-30T02:39:09.649Z,0.00
2018-12-30T02:40:09.491Z,0.00
2018-12-30T02:41:09.874Z,0.00
2018-12-30T02:42:10.664Z,0.00
2018-12-30T02:43:10.760Z,0.00
2018-12-30T02:44:10.649Z,0.00
2018-12-30T02:45:11.194Z,0.00
2018-12-30T02:46:11.053Z,0.00
2018-12-30T02:47:11.639Z,0.00
2018-12-30T02:48:11.869Z,0.00
2018-12-30T02:49:11.661Z,0.00
2018-12-30T02:50:12.104Z,0.00
2018-12-30T02:51:12.637Z,0.00
2018-12-30T02:52:12.757Z,0.00
2018-12-30T02:53:12.652Z,0.00
2018-12-30T02:54:13.111Z,0.00
2018-12-30T02:55:14.351Z,0.00
2018-12-30T02:56:13.600Z,0.00
2018-12-30T02:57:13.982Z,0.00
2018-12-30T02:58:14.377Z,0.00
2018-12-30T02:59:14.696Z,0.00
2018-12-30T03:00:15.278Z,0.00
2018-12-30T03:01:15.306Z,0.00
2018-12-30T03:02:15.395Z,0.00
2018-12-30T03:03:15.133Z,0.00
2018-12-30T03:04:15.469Z,0.00
2018-12-30T03:05:16.150Z,0.00
2018-12-30T03:06:16.081Z,0.00
2018-12-30T03:07:16.419Z,0.00
2018-12-30T03:08:17.009Z,0.00
2018-12-30T03:09:16.803Z,0.00
2018-12-30T03:10:17.601Z,0.00
2018-12-30T03:12:17.715Z,0.00
2018-12-30T03:13:17.485Z,0.00
2018-12-30T03:14:18.456Z,0.00
2018-12-30T03:15:19.080Z,0.00
2018-12-30T03:16:19.500Z,0.00
2018-12-30T03:17:20.023Z,0.00
2018-12-30T03:18:19.816Z,0.00
2018-12-30T03:19:20.237Z,0.00
2018-12-30T03:20:20.446Z,0.00
2018-12-30T03:21:20.854Z,0.00
2018-12-30T03:22:21.371Z,0.00
2018-12-30T03:23:21.044Z,0.00
2018-12-30T03:24:21.182Z,0.00
2018-12-30T03:25:21.156Z,0.00
2018-12-30T03:26:21.915Z,0.00
2018-12-30T03:27:21.810Z,0.00
2018-12-30T03:28:22.734Z,0.00
2018-12-30T03:29:22.425Z,0.00
2018-12-30T03:30:22.471Z,0.00
2018-12-30T03:31:22.620Z,0.00
2018-12-30T03:32:22.800Z,0.00
2018-12-30T03:33:22.887Z,0.00
2018-12-30T03:34:23.088Z,0.00
2018-12-30T03:35:23.302Z,0.00
2018-12-30T03:36:23.491Z,0.00
2018-12-30T03:37:23.652Z,0.00
2018-12-30T03:38:23.774Z,0.00
2018-12-30T03:39:23.958Z,0.00
2018-12-30T03:40:23.952Z,0.00
2018-12-30T03:41:24.054Z,0.00
2018-12-30T03:42:25.133Z,0.00
2018-12-30T03:43:24.502Z,0.00
2018-12-30T03:44:25.047Z,0.00
2018-12-30T03:45:24.821Z,0.00
2018-12-30T03:46:25.154Z,0.00
2018-12-30T03:47:25.462Z,0.00
2018-12-30T03:48:25.771Z,0.00
2018-12-30T03:49:26.103Z,0.00
2018-12-30T03:50:26.707Z,0.00
2018-12-30T03:51:26.648Z,0.00
2018-12-30T03:52:27.350Z,0.00
2018-12-30T03:53:27.416Z,0.00
2018-12-30T03:54:27.680Z,0.00
2018-12-30T03:55:28.072Z,0.00
2018-12-30T03:56:28.393Z,0.00
2018-12-30T03:57:28.801Z,0.00
2018-12-30T03:58:29.371Z,0.00
2018-12-30T03:59:29.222Z,0.00
2018-12-30T04:00:29.499Z,0.00
2018-12-30T04:01:30.223Z,0.00
2018-12-30T04:02:30.322Z,0.00
2018-12-30T04:03:30.079Z,0.00
2018-12-30T04:04:30.380Z,0.00
2018-12-30T04:05:30.686Z,0.00
2018-12-30T04:06:31.110Z,0.00
2018-12-30T04:07:31.490Z,0.00
2018-12-30T04:08:31.828Z,0.00
2018-12-30T04:09:32.316Z,0.00
2018-12-30T04:10:32.802Z,0.00
2018-12-30T04:11:33.874Z,0.00
2018-12-30T04:12:33.975Z,0.00
2018-12-30T04:13:34.203Z,0.00
2018-12-30T04:14:34.407Z,0.00
2018-12-30T04:15:34.731Z,0.00
2018-12-30T04:16:35.032Z,0.00
2018-12-30T04:17:35.453Z,0.00
2018-12-30T04:18:35.718Z,0.00
2018-12-30T04:19:35.874Z,0.00
2018-12-30T04:20:35.828Z,0.00
2018-12-30T04:21:36.399Z,0.00
2018-12-30T04:22:36.610Z,0.00
2018-12-30T04:23:36.720Z,0.00
2018-12-30T04:24:36.829Z,0.00
2018-12-30T04:25:36.939Z,0.00
2018-12-30T04:26:37.037Z,0.00
2018-12-30T04:27:37.041Z,0.00
2018-12-30T04:28:37.362Z,0.00
2018-12-30T04:29:37.574Z,0.00
2018-12-30T04:30:37.749Z,0.00
2018-12-30T04:31:37.851Z,0.00
2018-12-30T04:32:38.091Z,0.00
2018-12-30T04:34:38.302Z,0.00
2018-12-30T04:35:38.543Z,0.00
2018-12-30T04:36:38.750Z,0.00
2018-12-30T04:37:38.944Z,0.00
2018-12-30T04:38:39.946Z,0.00
2018-12-30T04:39:39.087Z,0.00
2018-12-30T04:40:39.388Z,0.00
2018-12-30T04:41:39.705Z,0.00
2018-12-30T04:42:39.711Z,0.00
2018-12-30T04:43:39.724Z,0.00
2018-12-30T04:44:40.079Z,0.00
2018-12-30T04:45:40.369Z,0.00
2018-12-30T04:46:40.626Z,0.00
2018-12-30T04:47:42.145Z,0.00
2018-12-30T04:48:40.945Z,0.00
2018-12-30T04:49:41.262Z,0.00
2018-12-30T04:50:41.705Z,0.00
2018-12-30T04:51:42.227Z,0.00
2018-12-30T04:52:42.232Z,0.00
2018-12-30T04:53:42.225Z,0.00
2018-12-30T04:54:42.129Z,0.00
2018-12-30T04:55:42.513Z,0.00
2018-12-30T04:56:42.987Z,0.00
2018-12-30T04:57:43.362Z,0.00
2018-12-30T04:58:43.738Z,0.00
2018-12-30T04:59:44.055Z,0.00
2018-12-30T05:00:44.462Z,0.00
2018-12-30T05:01:44.898Z,0.00
2018-12-30T05:02:45.741Z,0.00
2018-12-30T05:03:45.772Z,0.00
2018-12-30T05:04:45.551Z,0.00
2018-12-30T05:05:46.120Z,0.00
2018-12-30T05:06:46.124Z,0.00
2018-12-30T05:07:46.052Z,0.00
2018-12-30T05:08:46.437Z,0.00
2018-12-30T05:09:46.782Z,0.00
2018-12-30T05:10:47.076Z,0.00
2018-12-30T05:11:47.443Z,0.00
2018-12-30T05:12:48.206Z,0.00
2018-12-30T05:13:48.311Z,0.00
2018-12-30T05:14:48.837Z,0.00
2018-12-30T05:15:48.647Z,0.00
2018-12-30T05:16:49.354Z,0.00
2018-12-30T05:17:49.567Z,0.00
2018-12-30T05:18:49.987Z,0.00
2018-12-30T05:19:50.413Z,0.00
2018-12-30T05:20:50.823Z,0.00
2018-12-30T05:21:50.967Z,0.00
2018-12-30T05:22:51.027Z,0.00
2018-12-30T05:23:51.350Z,0.00
2018-12-30T05:24:51.481Z,0.00
2018-12-30T05:25:51.577Z,0.00
2018-12-30T05:26:51.676Z,0.00
2018-12-30T05:27:51.679Z,0.00
2018-12-30T05:28:51.982Z,0.00
2018-12-30T05:29:51.907Z,0.00
2018-12-30T05:30:52.257Z,0.00
2018-12-30T05:31:52.508Z,0.00
2018-12-30T05:32:52.585Z,0.00
2018-12-30T05:33:52.666Z,0.00
2018-12-30T05:34:52.891Z,0.00
2018-12-30T05:35:53.072Z,0.00
2018-12-30T05:36:53.372Z,0.00
2018-12-30T05:37:53.618Z,0.00
2018-12-30T05:38:53.916Z,0.00
2018-12-30T05:39:54.025Z,0.00
2018-12-30T05:40:54.044Z,0.00
2018-12-30T05:41:54.145Z,0.00
2018-12-30T05:42:54.157Z,0.00
2018-12-30T05:43:54.274Z,0.00
2018-12-30T05:44:54.352Z,0.00
2018-12-30T05:45:54.333Z,0.00
2018-12-30T05:46:54.684Z,0.00
2018-12-30T05:47:55.020Z,0.00
2018-12-30T05:48:55.423Z,0.00
2018-12-30T05:49:55.699Z,0.00
2018-12-30T05:50:56.252Z,0.00
2018-12-30T05:51:56.208Z,0.00
2018-12-30T05:52:56.770Z,0.00
2018-12-30T05:53:56.579Z,0.00
2018-12-30T05:54:57.077Z,0.00
2018-12-30T05:55:57.408Z,0.00
2018-12-30T05:56:57.795Z,0.00
2018-12-30T05:57:58.147Z,0.00
2018-12-30T05:58:58.861Z,0.00
2018-12-30T05:59:58.680Z,0.00
2018-12-30T06:00:59.335Z,0.00
2018-12-30T06:01:59.281Z,0.00
2018-12-30T06:02:59.622Z,0.00
2018-12-30T06:04:00.005Z,0.00
2018-12-30T06:05:00.440Z,0.00
2018-12-30T06:06:01.176Z,0.00
2018-12-30T06:07:01.667Z,0.00
2018-12-30T06:08:01.427Z,0.00
2018-12-30T06:09:01.251Z,0.00
2018-12-30T06:10:01.611Z,0.00
2018-12-30T06:11:02.133Z,0.00
2018-12-30T06:12:02.238Z,0.00
2018-12-30T06:13:02.518Z,0.00
2018-12-30T06:14:02.720Z,0.00
2018-12-30T06:15:02.836Z,0.00
2018-12-30T06:16:03.869Z,0.00
2018-12-30T06:17:03.883Z,0.00
2018-12-30T06:18:04.190Z,0.00
2018-12-30T06:19:04.402Z,0.00
2018-12-30T06:20:04.713Z,0.00
2018-12-30T06:21:04.616Z,0.00
2018-12-30T06:22:05.146Z,0.00
2018-12-30T06:23:05.349Z,0.00
2018-12-30T06:24:05.661Z,0.00
2018-12-30T06:25:05.450Z,0.00
2018-12-30T06:26:08.789Z,0.00
2018-12-30T06:27:06.301Z,0.00
2018-12-30T06:28:06.609Z,0.00
2018-12-30T06:29:06.924Z,0.00
2018-12-30T06:30:06.784Z,0.00
2018-12-30T06:31:07.169Z,0.00
2018-12-30T06:32:07.337Z,0.00
2018-12-30T06:33:07.987Z,0.00
2018-12-30T06:34:07.663Z,0.00
2018-12-30T06:35:07.777Z,0.00
2018-12-30T06:36:07.857Z,0.00
2018-12-30T06:37:07.668Z,0.00
2018-12-30T06:38:08.349Z,0.00
2018-12-30T06:39:08.229Z,0.00
2018-12-30T06:40:11.487Z,0.00
2018-12-30T06:41:09.113Z,0.00
2018-12-30T06:42:08.979Z,0.00
2018-12-30T06:43:09.288Z,1.00
2018-12-30T06:44:09.620Z,1.00
2018-12-30T06:45:10.184Z,1.00
2018-12-30T06:46:10.109Z,1.00
2018-12-30T06:47:10.753Z,1.00
2018-12-30T06:48:11.247Z,1.00
2018-12-30T06:49:11.245Z,2.00
2018-12-30T06:50:11.181Z,2.00
2018-12-30T06:51:11.487Z,3.00
2018-12-30T06:52:11.909Z,2.00
2018-12-30T06:53:12.192Z,4.00
2018-12-30T06:54:12.509Z,4.00
2018-12-30T06:55:13.339Z,4.00
2018-12-30T06:56:13.412Z,5.00
2018-12-30T06:57:13.495Z,7.00
2018-12-30T06:58:13.291Z,7.00
2018-12-30T06:59:13.544Z,9.00
2018-12-30T07:00:14.175Z,8.00
2018-12-30T07:01:14.191Z,10.00
2018-12-30T07:02:14.026Z,12.00
2018-12-30T07:03:14.639Z,13.00
2018-12-30T07:04:14.970Z,14.00
2018-12-30T07:05:15.643Z,17.00
2018-12-30T07:06:15.403Z,21.00
2018-12-30T07:07:15.765Z,26.00
2018-12-30T07:08:16.131Z,29.00
2018-12-30T07:09:16.431Z,33.00
2018-12-30T07:10:17.314Z,34.00
2018-12-30T07:11:17.192Z,34.00
2018-12-30T07:12:17.672Z,36.00
2018-12-30T07:13:18.383Z,44.00
2018-12-30T07:14:18.886Z,52.00
2018-12-30T07:15:18.895Z,58.00
2018-12-30T07:16:19.721Z,67.00
2018-12-30T07:17:19.724Z,77.00
2018-12-30T07:18:20.151Z,88.00
2018-12-30T07:19:20.565Z,96.00
2018-12-30T07:20:20.670Z,107.00
2018-12-30T07:21:21.083Z,117.00
2018-12-30T07:22:21.223Z,116.00
2018-12-30T07:23:21.159Z,124.00
2018-12-30T07:24:22.027Z,142.00
2018-12-30T07:25:22.122Z,161.00
2018-12-30T07:26:22.026Z,177.00
2018-12-30T07:27:22.418Z,188.00
2018-12-30T07:28:22.494Z,196.00
2018-12-30T07:29:22.564Z,205.00
2018-12-30T07:30:22.631Z,225.00
2018-12-30T07:31:22.712Z,240.00
2018-12-30T07:32:22.876Z,275.00
2018-12-30T07:33:23.213Z,295.00
2018-12-30T07:34:23.506Z,302.00
2018-12-30T07:36:23.862Z,329.00
2018-12-30T07:37:24.129Z,319.00
2018-12-30T07:38:24.243Z,310.00
2018-12-30T07:39:24.242Z,314.00
2018-12-30T07:40:24.762Z,335.00
2018-12-30T07:41:24.735Z,368.00
2018-12-30T07:42:25.101Z,371.00
2018-12-30T07:43:25.502Z,374.00
2018-12-30T07:44:26.080Z,415.00
2018-12-30T07:45:26.364Z,459.00
2018-12-30T07:46:26.188Z,459.00
2018-12-30T07:47:26.505Z,499.00
2018-12-30T07:48:26.978Z,532.00
2018-12-30T07:49:27.421Z,526.00
2018-12-30T07:50:27.763Z,534.00
2018-12-30T07:51:28.069Z,525.00
2018-12-30T07:52:28.386Z,506.00
2018-12-30T07:53:28.701Z,526.00
2018-12-30T07:54:29.399Z,574.00
2018-12-30T07:55:29.222Z,643.00
2018-12-30T07:56:29.705Z,678.00
2018-12-30T07:57:30.174Z,672.00
2018-12-30T07:58:30.477Z,711.00
2018-12-30T07:59:30.851Z,776.00
2018-12-30T08:00:31.136Z,761.00
2018-12-30T08:01:31.419Z,857.00
2018-12-30T08:02:31.861Z,922.00
2018-12-30T08:03:32.247Z,1033.00
2018-12-30T08:04:32.561Z,1119.00
2018-12-30T08:05:33.149Z,1111.00
2018-12-30T08:06:33.170Z,1066.00
2018-12-30T08:07:33.269Z,1035.00
2018-12-30T08:08:33.889Z,980.00
2018-12-30T08:09:33.699Z,1044.00
2018-12-30T08:10:34.311Z,1146.00
2018-12-30T08:11:34.622Z,1294.00
2018-12-30T08:12:34.942Z,1215.00
2018-12-30T08:13:35.148Z,1173.00
2018-12-30T08:14:35.267Z,1220.00
2018-12-30T08:15:35.674Z,1450.00
2018-12-30T08:16:36.090Z,1859.00
2018-12-30T08:17:36.306Z,2365.00
2018-12-30T08:18:36.429Z,2577.00
2018-12-30T08:19:36.642Z,2683.00
2018-12-30T08:20:36.834Z,2777.00
2018-12-30T08:21:36.738Z,2622.00
2018-12-30T08:22:37.142Z,2638.00
2018-12-30T08:23:37.524Z,2473.00
2018-12-30T08:24:37.602Z,2207.00
2018-12-30T08:25:37.750Z,2146.00
2018-12-30T08:26:37.843Z,1962.00
2018-12-30T08:27:38.047Z,1862.00
2018-12-30T08:28:38.276Z,1604.00
2018-12-30T08:29:38.533Z,1315.00
2018-12-30T08:30:38.776Z,1250.00
2018-12-30T08:31:38.911Z,1181.00
2018-12-30T08:32:38.966Z,1192.00
2018-12-30T08:33:38.974Z,1356.00
2018-12-30T08:34:39.040Z,1544.00
2018-12-30T08:35:39.193Z,1358.00
2018-12-30T08:36:39.117Z,1206.00
2018-12-30T08:37:39.736Z,1103.00
2018-12-30T08:38:39.556Z,1183.00
2018-12-30T08:39:39.979Z,1283.00
2018-12-30T08:40:40.429Z,1350.00
2018-12-30T08:41:40.290Z,1430.00
2018-12-30T08:42:40.647Z,1283.00
2018-12-30T08:43:40.758Z,1256.00
2018-12-30T08:44:41.803Z,1245.00
2018-12-30T08:45:41.663Z,1370.00
2018-12-30T08:46:41.952Z,1649.00
2018-12-30T08:47:42.266Z,1816.00
2018-12-30T08:49:42.588Z,2039.00
2018-12-30T08:50:42.989Z,2084.00
2018-12-30T08:51:43.306Z,2041.00
2018-12-30T08:52:43.619Z,1815.00
2018-12-30T08:53:44.141Z,1604.00
2018-12-30T08:54:44.494Z,1491.00
2018-12-30T08:55:44.520Z,1632.00
2018-12-30T08:56:44.393Z,1893.00
2018-12-30T08:57:44.727Z,2098.00
2018-12-30T08:58:44.995Z,2163.00
2018-12-30T08:59:45.459Z,2084.00
2018-12-30T09:00:45.885Z,2022.00
2018-12-30T09:01:46.338Z,1998.00
2018-12-30T09:02:46.694Z,2183.00
2018-12-30T09:03:47.281Z,2258.00
2018-12-30T09:04:47.268Z,2269.00
2018-12-30T09:05:47.654Z,2426.00
2018-12-30T09:06:48.500Z,2539.00
2018-12-30T09:07:49.226Z,2643.00
2018-12-30T09:08:49.230Z,2852.00
2018-12-30T09:09:50.071Z,2928.00
2018-12-30T09:10:50.478Z,2904.00
2018-12-30T09:11:51.914Z,3134.00
2018-12-30T09:12:50.898Z,3449.00
2018-12-30T09:13:51.621Z,3839.00
2018-12-30T09:14:52.140Z,4049.00
2018-12-30T09:15:51.721Z,4020.00
2018-12-30T09:16:52.055Z,3849.00
2018-12-30T09:17:51.949Z,3822.00
2018-12-30T09:18:52.373Z,4413.00
2018-12-30T09:19:52.513Z,4607.00
2018-12-30T09:20:52.658Z,4845.00
2018-12-30T09:21:52.893Z,5193.00
2018-12-30T09:22:53.120Z,5031.00
2018-12-30T09:24:53.436Z,3839.00
2018-12-30T09:25:53.850Z,3892.00
2018-12-30T09:26:53.818Z,4305.00
2018-12-30T09:27:54.419Z,4406.00
2018-12-30T09:28:54.417Z,4524.00
2018-12-30T09:29:54.896Z,3910.00
2018-12-30T09:30:55.238Z,4212.00
2018-12-30T09:31:55.516Z,4348.00
2018-12-30T09:32:55.995Z,4136.00
2018-12-30T09:33:56.576Z,3573.00
2018-12-30T09:34:56.657Z,3935.00
2018-12-30T09:35:56.527Z,3721.00
2018-12-30T09:36:56.937Z,3578.00
2018-12-30T09:37:57.235Z,3458.00
2018-12-30T09:38:57.503Z,3292.00
2018-12-30T09:39:57.873Z,3188.00
2018-12-30T09:40:58.550Z,2853.00
2018-12-30T09:41:58.496Z,3222.00
2018-12-30T09:42:58.861Z,3316.00
2018-12-30T09:43:59.233Z,2903.00
2018-12-30T09:44:59.305Z,2968.00
2018-12-30T09:45:59.896Z,3233.00
2018-12-30T09:47:00.136Z,2936.00
2018-12-30T09:48:00.412Z,3147.00
2018-12-30T09:49:00.697Z,3296.00
2018-12-30T09:50:01.083Z,3443.00
2018-12-30T09:51:01.887Z,3418.00
2018-12-30T09:52:01.923Z,3484.00
2018-12-30T09:53:02.303Z,3209.00
2018-12-30T09:54:02.686Z,2927.00
2018-12-30T09:55:02.804Z,2660.00
2018-12-30T09:56:03.355Z,2697.00
2018-12-30T09:57:03.065Z,2669.00
2018-12-30T09:58:03.540Z,3628.00
2018-12-30T10:00:04.207Z,3128.00
2018-12-30T10:01:04.521Z,3333.00
2018-12-30T10:02:04.526Z,4009.00
2018-12-30T10:03:04.952Z,4582.00
2018-12-30T10:04:05.255Z,4884.00
2018-12-30T10:05:05.569Z,4618.00
2018-12-30T10:06:05.674Z,3908.00
2018-12-30T10:07:05.886Z,3777.00
2018-12-30T10:08:06.414Z,3764.00
2018-12-30T10:09:06.313Z,3338.00
2018-12-30T10:10:06.520Z,3708.00
2018-12-30T10:11:06.732Z,3308.00
2018-12-30T10:12:06.788Z,2794.00
2018-12-30T10:13:07.122Z,2520.00
2018-12-30T10:14:07.249Z,2339.00
2018-12-30T10:15:10.095Z,2435.00
2018-12-30T10:16:07.720Z,2530.00
2018-12-30T10:17:07.541Z,2586.00
2018-12-30T10:18:07.866Z,2446.00
2018-12-30T10:19:08.333Z,2566.00
2018-12-30T10:20:09.211Z,2801.00
2018-12-30T10:21:09.232Z,2848.00
2018-12-30T10:23:09.215Z,2420.00
2018-12-30T10:24:09.618Z,2231.00
2018-12-30T10:25:11.513Z,2318.00
2018-12-30T10:26:10.564Z,2508.00
2018-12-30T10:27:10.540Z,2575.00
2018-12-30T10:28:10.834Z,2647.00
2018-12-30T10:29:11.207Z,2721.00
2018-12-30T10:30:11.526Z,2683.00
2018-12-30T10:31:11.822Z,2930.00
2018-12-30T10:32:12.117Z,3195.00
2018-12-30T10:33:12.547Z,3350.00
2018-12-30T10:35:13.159Z,3334.00
2018-12-30T10:36:13.388Z,3305.00
2018-12-30T10:37:13.315Z,3386.00
2018-12-30T10:38:13.754Z,3836.00
2018-12-30T10:39:13.744Z,4034.00
2018-12-30T10:40:14.502Z,4127.00
2018-12-30T10:41:14.508Z,4059.00
2018-12-30T10:42:14.367Z,3789.00
2018-12-30T10:43:14.800Z,3579.00
2018-12-30T10:44:15.370Z,3419.00
2018-12-30T10:45:15.648Z,3146.00
2018-12-30T10:46:15.862Z,2946.00
2018-12-30T10:47:15.745Z,2988.00
2018-12-30T10:48:16.185Z,3381.00
2018-12-30T10:49:16.539Z,3404.00
2018-12-30T10:50:17.160Z,3381.00
2018-12-30T10:51:16.954Z,3406.00
2018-12-30T10:52:17.260Z,3539.00
2018-12-30T10:53:17.974Z,4106.00
2018-12-30T10:54:18.206Z,4925.00
2018-12-30T10:55:18.185Z,5088.00
2018-12-30T10:56:18.977Z,4898.00
2018-12-30T10:57:19.836Z,4425.00
2018-12-30T10:58:20.146Z,3966.00
2018-12-30T10:59:20.672Z,3758.00
2018-12-30T11:00:20.703Z,4054.00
2018-12-30T11:01:20.685Z,4339.00
2018-12-30T11:02:20.684Z,4013.00
2018-12-30T11:03:20.824Z,4001.00
2018-12-30T11:04:21.052Z,3896.00
2018-12-30T11:05:21.168Z,3579.00
2018-12-30T11:06:21.197Z,3675.00
2018-12-30T11:07:21.461Z,3283.00
2018-12-30T11:08:21.541Z,2962.00
2018-12-30T11:09:22.085Z,3158.00
2018-12-30T11:10:22.288Z,3529.00
2018-12-30T11:11:22.402Z,3523.00
2018-12-30T11:12:22.513Z,3262.00
2018-12-30T11:13:22.552Z,3041.00
2018-12-30T11:14:22.431Z,2980.00
2018-12-30T11:15:22.531Z,3246.00
2018-12-30T11:16:22.666Z,3166.00
2018-12-30T11:17:22.782Z,3005.00
2018-12-30T11:18:23.027Z,2891.00
2018-12-30T11:19:23.180Z,2900.00
2018-12-30T11:20:23.575Z,3258.00
2018-12-30T11:21:23.813Z,3981.00
2018-12-30T11:22:24.077Z,4121.00
2018-12-30T11:23:24.090Z,4158.00
2018-12-30T11:24:24.318Z,4373.00
2018-12-30T11:25:24.320Z,4095.00
2018-12-30T11:26:25.228Z,3910.00
2018-12-30T11:27:25.211Z,3538.00
2018-12-30T11:28:25.595Z,2909.00
2018-12-30T11:29:26.010Z,2747.00
2018-12-30T11:30:26.491Z,2702.00
2018-12-30T11:31:27.070Z,2714.00
2018-12-30T11:32:26.870Z,2835.00
2018-12-30T11:33:27.330Z,3068.00
2018-12-30T11:34:27.983Z,2961.00
2018-12-30T11:35:27.821Z,2802.00
2018-12-30T11:36:28.127Z,3034.00
2018-12-30T11:37:28.454Z,3381.00
2018-12-30T11:38:28.788Z,3351.00
2018-12-30T11:39:29.163Z,3373.00
2018-12-30T11:40:29.517Z,3624.00
2018-12-30T11:41:30.029Z,3894.00
2018-12-30T11:42:30.192Z,4008.00
2018-12-30T11:43:30.195Z,4027.00
2018-12-30T11:44:30.037Z,3707.00
2018-12-30T11:45:30.497Z,3297.00
2018-12-30T11:46:31.050Z,2918.00
2018-12-30T11:47:30.876Z,2818.00
2018-12-30T11:48:31.310Z,2851.00
2018-12-30T11:49:31.772Z,2794.00
2018-12-30T11:50:31.900Z,2768.00
2018-12-30T11:51:32.123Z,2699.00
2018-12-30T11:52:32.145Z,2411.00
2018-12-30T11:53:32.221Z,2456.00
2018-12-30T11:54:32.319Z,2668.00
2018-12-30T11:55:32.187Z,2827.00
2018-12-30T11:56:32.594Z,2990.00
2018-12-30T11:57:33.766Z,2980.00
2018-12-30T11:58:33.676Z,2926.00
2018-12-30T11:59:34.302Z,3073.00
2018-12-30T12:00:34.714Z,3141.00
2018-12-30T12:01:34.919Z,2835.00
2018-12-30T12:02:35.238Z,2601.00
2018-12-30T12:03:35.655Z,2598.00
2018-12-30T12:04:35.858Z,2490.00
2018-12-30T12:05:36.182Z,2503.00
2018-12-30T12:06:36.005Z,2551.00
2018-12-30T12:07:36.093Z,2747.00
2018-12-30T12:08:36.914Z,2933.00
2018-12-30T12:09:36.925Z,2379.00
2018-12-30T12:10:38.660Z,2140.00
2018-12-30T12:11:37.209Z,2259.00
2018-12-30T12:12:37.497Z,2318.00
2018-12-30T12:13:37.760Z,2524.00
2018-12-30T12:14:38.046Z,2631.00
2018-12-30T12:15:38.401Z,2676.00
2018-12-30T12:16:38.777Z,2646.00
2018-12-30T12:17:39.052Z,2792.00
2018-12-30T12:18:39.201Z,2847.00
2018-12-30T12:19:39.251Z,2552.00
2018-12-30T12:20:39.240Z,2189.00
2018-12-30T12:21:39.174Z,2029.00
2018-12-30T12:22:39.461Z,2127.00
2018-12-30T12:23:39.829Z,2276.00
2018-12-30T12:24:40.213Z,2110.00
2018-12-30T12:25:40.475Z,2045.00
2018-12-30T12:26:43.505Z,2188.00
2018-12-30T12:27:41.381Z,2249.00
2018-12-30T12:28:41.703Z,1974.00
2018-12-30T12:29:41.487Z,1751.00
2018-12-30T12:30:41.998Z,1655.00
2018-12-30T12:31:42.030Z,1518.00
2018-12-30T12:32:44.443Z,1473.00
2018-12-30T12:33:42.427Z,1556.00
2018-12-30T12:34:42.243Z,1591.00
2018-12-30T12:35:42.757Z,1731.00
2018-12-30T12:36:43.197Z,1886.00
2018-12-30T12:37:44.012Z,1986.00
2018-12-30T12:38:43.984Z,1993.00
2018-12-30T12:39:44.393Z,2180.00
2018-12-30T12:40:45.918Z,2833.00
2018-12-30T12:41:45.207Z,3148.00
2018-12-30T12:42:45.283Z,3092.00
2018-12-30T12:43:45.234Z,2852.00
2018-12-30T12:44:45.513Z,2946.00
2018-12-30T12:45:45.957Z,2946.00
2018-12-30T12:46:46.545Z,2637.00
2018-12-30T12:47:46.553Z,2092.00
2018-12-30T12:48:46.992Z,1806.00
2018-12-30T12:49:47.421Z,1655.00
2018-12-30T12:50:47.766Z,1631.00
2018-12-30T12:51:49.006Z,1608.00
2018-12-30T12:52:49.588Z,1578.00
2018-12-30T12:53:49.797Z,1683.00
2018-12-30T12:55:49.941Z,2504.00
2018-12-30T12:56:50.536Z,2606.00
2018-12-30T12:57:50.950Z,2719.00
2018-12-30T12:58:51.468Z,2891.00
2018-12-30T12:59:51.274Z,3049.00